createdAt,value
2019-02-09T00:00:24.065Z,1001.38
2019-02-09T00:01:24.046Z,1001.40
2019-02-09T00:02:24.026Z,1001.38
2019-02-09T00:03:24.015Z,1001.34
2019-02-09T00:04:24.005Z,1001.33
2019-02-09T00:05:24.021Z,1001.19
2019-02-09T00:06:23.986Z,1001.16
2019-02-09T00:07:23.985Z,1001.18
2019-02-09T00:08:23.965Z,1001.19
2019-02-09T00:09:23.944Z,1001.11
2019-02-09T00:10:23.938Z,1001.13
2019-02-09T00:11:23.952Z,1001.11
2019-02-09T00:12:23.916Z,1001.07
2019-02-09T00:13:23.901Z,1001.02
2019-02-09T00:14:23.898Z,1000.99
2019-02-09T00:15:23.884Z,1001.05
2019-02-09T00:16:23.893Z,1001.01
2019-02-09T00:17:23.865Z,1001.02
2019-02-09T00:18:23.850Z,1000.97
2019-02-09T00:19:23.842Z,1000.94
2019-02-09T00:20:23.828Z,1000.95
2019-02-09T00:21:23.834Z,1000.91
2019-02-09T00:22:23.801Z,1000.84
2019-02-09T00:23:23.792Z,1000.83
2019-02-09T00:24:23.781Z,1000.86
2019-02-09T00:25:23.771Z,1000.85
2019-02-09T00:26:23.778Z,1000.85
2019-02-09T00:27:23.743Z,1000.83
2019-02-09T00:28:23.742Z,1000.79
2019-02-09T00:29:23.724Z,1000.72
2019-02-09T00:30:23.721Z,1000.75
2019-02-09T00:31:23.724Z,1000.72
2019-02-09T00:32:23.705Z,1000.70
2019-02-09T00:33:23.683Z,1000.65
2019-02-09T00:34:23.674Z,1000.65
2019-02-09T00:35:23.663Z,1000.62
2019-02-09T00:36:23.664Z,1000.66
2019-02-09T00:37:23.637Z,1000.69
2019-02-09T00:38:23.628Z,1000.70
2019-02-09T00:39:23.621Z,1000.70
2019-02-09T00:40:23.612Z,1000.71
2019-02-09T00:41:23.611Z,1000.69
2019-02-09T00:42:23.583Z,1000.74
2019-02-09T00:43:23.570Z,1000.75
2019-02-09T00:44:23.559Z,1000.72
2019-02-09T00:45:23.551Z,1000.75
2019-02-09T00:46:23.555Z,1000.73
2019-02-09T00:47:23.525Z,1000.75
2019-02-09T00:48:23.529Z,1000.74
2019-02-09T00:49:23.515Z,1000.66
2019-02-09T00:50:23.492Z,1000.75
2019-02-09T00:51:23.496Z,1000.72
2019-02-09T00:52:23.473Z,1000.72
2019-02-09T00:53:23.457Z,1000.57
2019-02-09T00:54:23.449Z,1000.60
2019-02-09T00:55:23.434Z,1000.54
2019-02-09T00:56:23.435Z,1000.50
2019-02-09T00:57:23.412Z,1000.42
2019-02-09T00:58:23.399Z,1000.42
2019-02-09T00:59:23.394Z,1000.42
2019-02-09T01:00:23.379Z,1000.45
2019-02-09T01:01:23.401Z,1000.44
2019-02-09T01:02:23.360Z,1000.43
2019-02-09T01:03:23.344Z,1000.34
2019-02-09T01:04:23.331Z,1000.39
2019-02-09T01:05:23.324Z,1000.40
2019-02-09T01:06:23.315Z,1000.35
2019-02-09T01:07:23.313Z,1000.36
2019-02-09T01:08:23.293Z,1000.28
2019-02-09T01:09:23.283Z,1000.25
2019-02-09T01:10:23.265Z,1000.21
2019-02-09T01:11:23.253Z,1000.27
2019-02-09T01:12:23.261Z,1000.23
2019-02-09T01:13:23.227Z,1000.23
2019-02-09T01:14:23.221Z,1000.18
2019-02-09T01:15:23.209Z,1000.19
2019-02-09T01:16:23.196Z,1000.18
2019-02-09T01:17:23.209Z,1000.20
2019-02-09T01:18:23.170Z,1000.16
2019-02-09T01:19:23.162Z,1000.18
2019-02-09T01:20:23.153Z,1000.21
2019-02-09T01:21:23.146Z,1000.16
2019-02-09T01:22:23.159Z,1000.06
2019-02-09T01:23:23.138Z,1000.15
2019-02-09T01:24:23.146Z,1000.11
2019-02-09T01:25:23.099Z,1000.07
2019-02-09T01:26:23.082Z,999.99
2019-02-09T01:27:23.093Z,999.99
2019-02-09T01:28:23.057Z,999.99
2019-02-09T01:29:23.056Z,1000.01
2019-02-09T01:30:23.060Z,999.96
2019-02-09T01:31:23.030Z,999.89
2019-02-09T01:32:23.043Z,999.88
2019-02-09T01:33:23.003Z,999.89
2019-02-09T01:34:22.997Z,999.80
2019-02-09T01:35:22.981Z,999.70
2019-02-09T01:36:22.970Z,999.73
2019-02-09T01:37:22.986Z,999.70
2019-02-09T01:38:22.955Z,999.72
2019-02-09T01:39:22.935Z,999.68
2019-02-09T01:40:22.930Z,999.67
2019-02-09T01:41:22.916Z,999.68
2019-02-09T01:42:22.922Z,999.56
2019-02-09T01:43:22.890Z,999.65
2019-02-09T01:44:22.883Z,999.53
2019-02-09T01:45:22.873Z,999.55
2019-02-09T01:46:22.859Z,999.58
2019-02-09T01:47:22.869Z,999.53
2019-02-09T01:48:22.835Z,999.48
2019-02-09T01:49:22.837Z,999.51
2019-02-09T01:50:22.845Z,999.49
2019-02-09T01:51:22.798Z,999.51
2019-02-09T01:52:22.810Z,999.43
2019-02-09T01:53:22.775Z,999.40
2019-02-09T01:54:22.767Z,999.42
2019-02-09T01:55:22.769Z,999.35
2019-02-09T01:56:22.751Z,999.31
2019-02-09T01:57:22.778Z,999.35
2019-02-09T01:58:22.721Z,999.25
2019-02-09T01:59:22.710Z,999.28
2019-02-09T02:00:22.701Z,999.30
2019-02-09T02:01:22.694Z,999.27
2019-02-09T02:02:22.677Z,999.27
2019-02-09T02:03:22.679Z,999.18
2019-02-09T02:04:22.663Z,999.23
2019-02-09T02:05:22.643Z,999.22
2019-02-09T02:06:22.637Z,999.16
2019-02-09T02:07:22.621Z,999.18
2019-02-09T02:08:22.632Z,999.19
2019-02-09T02:09:22.644Z,999.21
2019-02-09T02:10:22.586Z,999.12
2019-02-09T02:11:22.581Z,999.12
2019-02-09T02:12:22.563Z,999.02
2019-02-09T02:13:22.574Z,999.04
2019-02-09T02:14:22.541Z,998.99
2019-02-09T02:15:22.530Z,998.91
2019-02-09T02:16:22.520Z,998.87
2019-02-09T02:17:22.507Z,998.88
2019-02-09T02:18:22.532Z,998.86
2019-02-09T02:19:22.487Z,998.79
2019-02-09T02:20:22.475Z,998.79
2019-02-09T02:21:22.464Z,998.77
2019-02-09T02:22:22.456Z,998.73
2019-02-09T02:23:22.453Z,998.65
2019-02-09T02:24:22.459Z,998.71
2019-02-09T02:25:23.702Z,998.74
2019-02-09T02:26:22.417Z,998.74
2019-02-09T02:27:22.396Z,998.74
2019-02-09T02:28:22.389Z,998.67
2019-02-09T02:29:22.394Z,998.71
2019-02-09T02:30:23.262Z,998.72
2019-02-09T02:31:22.354Z,998.70
2019-02-09T02:32:22.344Z,998.66
2019-02-09T02:33:22.330Z,998.71
2019-02-09T02:34:22.343Z,998.70
2019-02-09T02:35:22.306Z,998.62
2019-02-09T02:36:22.301Z,998.60
2019-02-09T02:37:22.290Z,998.60
2019-02-09T02:38:22.272Z,998.62
2019-02-09T02:39:22.286Z,998.54
2019-02-09T02:40:22.252Z,998.53
2019-02-09T02:41:22.246Z,998.47
2019-02-09T02:42:22.226Z,998.49
2019-02-09T02:43:22.216Z,998.49
2019-02-09T02:44:22.228Z,998.49
2019-02-09T02:45:22.194Z,998.48
2019-02-09T02:46:22.190Z,998.48
2019-02-09T02:47:22.174Z,998.51
2019-02-09T02:48:22.162Z,998.43
2019-02-09T02:49:22.174Z,998.43
2019-02-09T02:50:22.143Z,998.38
2019-02-09T02:51:22.130Z,998.34
2019-02-09T02:52:22.124Z,998.36
2019-02-09T02:53:22.107Z,998.32
2019-02-09T02:54:22.143Z,998.35
2019-02-09T02:55:22.084Z,998.29
2019-02-09T02:56:22.076Z,998.25
2019-02-09T02:57:22.071Z,998.23
2019-02-09T02:58:22.052Z,998.25
2019-02-09T02:59:22.040Z,998.26
2019-02-09T03:00:31.029Z,998.24
2019-02-09T03:01:23.035Z,998.21
2019-02-09T03:02:22.005Z,998.18
2019-02-09T03:03:21.997Z,998.09
2019-02-09T03:04:21.986Z,998.14
2019-02-09T03:05:22.018Z,998.07
2019-02-09T03:06:21.964Z,998.09
2019-02-09T03:07:21.952Z,998.02
2019-02-09T03:08:21.940Z,997.99
2019-02-09T03:09:21.928Z,997.96
2019-02-09T03:10:21.946Z,997.97
2019-02-09T03:11:21.918Z,997.95
2019-02-09T03:12:21.896Z,997.91
2019-02-09T03:13:21.892Z,997.89
2019-02-09T03:14:21.872Z,997.86
2019-02-09T03:15:21.883Z,997.83
2019-02-09T03:16:21.853Z,997.82
2019-02-09T03:17:21.842Z,997.81
2019-02-09T03:18:21.831Z,997.76
2019-02-09T03:19:21.818Z,997.68
2019-02-09T03:20:21.820Z,997.67
2019-02-09T03:21:22.079Z,997.62
2019-02-09T03:22:21.780Z,997.60
2019-02-09T03:23:21.783Z,997.55
2019-02-09T03:24:21.762Z,997.51
2019-02-09T03:25:21.779Z,997.41
2019-02-09T03:26:21.746Z,997.39
2019-02-09T03:27:21.734Z,997.43
2019-02-09T03:28:21.724Z,997.37
2019-02-09T03:29:21.703Z,997.34
2019-02-09T03:30:21.714Z,997.37
2019-02-09T03:31:21.690Z,997.33
2019-02-09T03:32:21.676Z,997.38
2019-02-09T03:33:21.675Z,997.34
2019-02-09T03:34:21.655Z,997.33
2019-02-09T03:35:21.660Z,997.25
2019-02-09T03:36:21.631Z,997.30
2019-02-09T03:37:21.627Z,997.26
2019-02-09T03:38:21.611Z,997.17
2019-02-09T03:39:21.598Z,997.22
2019-02-09T03:40:21.607Z,997.26
2019-02-09T03:41:21.569Z,997.17
2019-02-09T03:42:21.559Z,997.12
2019-02-09T03:43:21.551Z,997.16
2019-02-09T03:44:21.542Z,997.23
2019-02-09T03:45:21.555Z,997.14
2019-02-09T03:46:21.519Z,997.10
2019-02-09T03:47:21.504Z,997.11
2019-02-09T03:48:21.493Z,997.13
2019-02-09T03:49:21.483Z,997.12
2019-02-09T03:50:21.487Z,997.04
2019-02-09T03:51:21.669Z,997.08
2019-02-09T03:52:21.459Z,997.08
2019-02-09T03:53:21.443Z,997.05
2019-02-09T03:54:21.431Z,997.02
2019-02-09T03:55:21.433Z,997.09
2019-02-09T03:56:21.408Z,997.09
2019-02-09T03:57:21.397Z,997.04
2019-02-09T03:58:21.391Z,997.00
2019-02-09T03:59:21.373Z,997.04
2019-02-09T04:00:21.460Z,997.02
2019-02-09T04:01:21.351Z,997.05
2019-02-09T04:02:21.340Z,997.04
2019-02-09T04:03:21.335Z,997.09
2019-02-09T04:04:21.311Z,997.00
2019-02-09T04:05:21.306Z,996.95
2019-02-09T04:06:21.311Z,996.97
2019-02-09T04:07:21.291Z,996.98
2019-02-09T04:08:21.281Z,996.92
2019-02-09T04:09:21.263Z,996.99
2019-02-09T04:10:21.256Z,996.93
2019-02-09T04:11:21.259Z,996.91
2019-02-09T04:12:21.235Z,996.96
2019-02-09T04:13:21.219Z,996.97
2019-02-09T04:14:21.203Z,996.94
2019-02-09T04:15:21.206Z,996.94
2019-02-09T04:16:21.215Z,996.94
2019-02-09T04:17:21.169Z,996.97
2019-02-09T04:18:21.162Z,996.93
2019-02-09T04:19:21.147Z,996.93
2019-02-09T04:20:21.138Z,996.81
2019-02-09T04:21:21.290Z,996.86
2019-02-09T04:22:21.123Z,996.82
2019-02-09T04:23:21.103Z,996.79
2019-02-09T04:24:21.095Z,996.81
2019-02-09T04:25:21.083Z,996.87
2019-02-09T04:26:21.088Z,996.82
2019-02-09T04:27:21.060Z,996.74
2019-02-09T04:28:21.049Z,996.79
2019-02-09T04:29:21.036Z,996.84
2019-02-09T04:30:21.038Z,996.76
2019-02-09T04:31:21.035Z,996.72
2019-02-09T04:32:21.005Z,996.73
2019-02-09T04:33:20.996Z,996.69
2019-02-09T04:34:20.979Z,996.67
2019-02-09T04:35:20.970Z,996.68
2019-02-09T04:36:20.983Z,996.77
2019-02-09T04:37:20.951Z,996.75
2019-02-09T04:38:20.937Z,996.72
2019-02-09T04:39:21.923Z,996.68
2019-02-09T04:40:20.911Z,996.71
2019-02-09T04:41:20.927Z,996.63
2019-02-09T04:42:20.886Z,996.67
2019-02-09T04:43:20.879Z,996.68
2019-02-09T04:44:20.864Z,996.67
2019-02-09T04:45:20.854Z,996.62
2019-02-09T04:46:20.844Z,996.56
2019-02-09T04:47:20.852Z,996.63
2019-02-09T04:48:20.822Z,996.64
2019-02-09T04:49:20.813Z,996.64
2019-02-09T04:50:20.798Z,996.61
2019-02-09T04:51:20.785Z,996.51
2019-02-09T04:52:20.804Z,996.44
2019-02-09T04:53:20.766Z,996.48
2019-02-09T04:54:20.754Z,996.40
2019-02-09T04:55:20.756Z,996.38
2019-02-09T04:56:20.728Z,996.45
2019-02-09T04:57:20.735Z,996.33
2019-02-09T04:58:20.706Z,996.42
2019-02-09T04:59:20.696Z,996.38
2019-02-09T05:00:20.684Z,996.35
2019-02-09T05:01:20.670Z,996.32
2019-02-09T05:02:20.699Z,996.32
2019-02-09T05:03:20.646Z,996.34
2019-02-09T05:04:20.637Z,996.30
2019-02-09T05:05:20.623Z,996.25
2019-02-09T05:06:20.612Z,996.27
2019-02-09T05:07:20.601Z,996.33
2019-02-09T05:08:20.608Z,996.27
2019-02-09T05:09:20.580Z,996.31
2019-02-09T05:10:20.567Z,996.28
2019-02-09T05:11:20.557Z,996.28
2019-02-09T05:12:20.548Z,996.25
2019-02-09T05:13:20.550Z,996.26
2019-02-09T05:14:20.522Z,996.29
2019-02-09T05:15:20.512Z,996.22
2019-02-09T05:16:20.496Z,996.19
2019-02-09T05:17:20.482Z,996.16
2019-02-09T05:18:20.488Z,996.21
2019-02-09T05:19:20.460Z,996.26
2019-02-09T05:20:20.454Z,996.18
2019-02-09T05:21:20.446Z,996.21
2019-02-09T05:22:20.428Z,996.24
2019-02-09T05:23:20.443Z,996.26
2019-02-09T05:24:20.413Z,996.37
2019-02-09T05:25:20.397Z,996.28
2019-02-09T05:26:20.378Z,996.34
2019-02-09T05:27:20.381Z,996.28
2019-02-09T05:28:20.362Z,996.28
2019-02-09T05:29:20.363Z,996.27
2019-02-09T05:30:20.339Z,996.30
2019-02-09T05:31:23.070Z,996.32
2019-02-09T05:32:20.316Z,996.31
2019-02-09T05:33:20.314Z,996.36
2019-02-09T05:34:20.311Z,996.33
2019-02-09T05:35:20.284Z,996.33
2019-02-09T05:36:20.274Z,996.28
2019-02-09T05:37:20.263Z,996.31
2019-02-09T05:38:20.241Z,996.30
2019-02-09T05:39:20.260Z,996.31
2019-02-09T05:40:20.233Z,996.39
2019-02-09T05:41:20.220Z,996.34
2019-02-09T05:42:20.204Z,996.21
2019-02-09T05:43:20.188Z,996.30
2019-02-09T05:44:20.183Z,996.31
2019-02-09T05:45:20.190Z,996.28
2019-02-09T05:46:20.175Z,996.25
2019-02-09T05:47:20.147Z,996.28
2019-02-09T05:48:20.155Z,996.23
2019-02-09T05:49:20.515Z,996.33
2019-02-09T05:50:20.109Z,996.23
2019-02-09T05:51:20.101Z,996.20
2019-02-09T05:52:20.087Z,996.27
2019-02-09T05:53:20.101Z,996.27
2019-02-09T05:54:20.063Z,996.31
2019-02-09T05:55:20.073Z,996.28
2019-02-09T05:56:20.044Z,996.30
2019-02-09T05:57:20.030Z,996.33
2019-02-09T05:58:20.132Z,996.32
2019-02-09T05:59:20.013Z,996.33
2019-02-09T06:00:20.001Z,996.27
2019-02-09T06:01:19.986Z,996.34
2019-02-09T06:02:19.971Z,996.30
2019-02-09T06:03:19.986Z,996.33
2019-02-09T06:04:19.964Z,996.30
2019-02-09T06:05:19.935Z,996.26
2019-02-09T06:06:19.925Z,996.19
2019-02-09T06:07:19.911Z,996.18
2019-02-09T06:08:19.929Z,996.22
2019-02-09T06:09:19.890Z,996.18
2019-02-09T06:10:19.892Z,996.15
2019-02-09T06:11:19.867Z,996.17
2019-02-09T06:12:19.862Z,996.20
2019-02-09T06:13:19.864Z,996.35
2019-02-09T06:14:19.835Z,996.28
2019-02-09T06:15:19.825Z,996.27
2019-02-09T06:16:19.816Z,996.20
2019-02-09T06:17:19.799Z,996.28
2019-02-09T06:18:19.816Z,996.31
2019-02-09T06:19:19.828Z,996.26
2019-02-09T06:20:19.767Z,996.26
2019-02-09T06:21:19.918Z,996.25
2019-02-09T06:22:19.748Z,996.25
2019-02-09T06:23:19.739Z,996.31
2019-02-09T06:24:19.747Z,996.35
2019-02-09T06:25:19.713Z,996.36
2019-02-09T06:26:19.695Z,996.37
2019-02-09T06:27:19.685Z,996.38
2019-02-09T06:28:19.675Z,996.37
2019-02-09T06:29:19.681Z,996.36
2019-02-09T06:30:19.652Z,996.41
2019-02-09T06:31:19.639Z,996.36
2019-02-09T06:32:19.629Z,996.35
2019-02-09T06:33:19.619Z,996.33
2019-02-09T06:34:19.625Z,996.35
2019-02-09T06:35:19.595Z,996.36
2019-02-09T06:36:19.580Z,996.36
2019-02-09T06:37:19.577Z,996.31
2019-02-09T06:38:19.559Z,996.33
2019-02-09T06:39:19.565Z,996.35
2019-02-09T06:40:19.549Z,996.32
2019-02-09T06:41:19.519Z,996.33
2019-02-09T06:42:19.514Z,996.30
2019-02-09T06:43:19.500Z,996.29
2019-02-09T06:44:19.505Z,996.27
2019-02-09T06:45:19.485Z,996.33
2019-02-09T06:46:19.473Z,996.39
2019-02-09T06:47:19.459Z,996.35
2019-02-09T06:48:19.441Z,996.37
2019-02-09T06:49:19.445Z,996.37
2019-02-09T06:50:19.420Z,996.42
2019-02-09T06:51:19.414Z,996.34
2019-02-09T06:52:19.397Z,996.35
2019-02-09T06:53:19.385Z,996.33
2019-02-09T06:54:19.388Z,996.38
2019-02-09T06:55:19.369Z,996.35
2019-02-09T06:56:19.353Z,996.46
2019-02-09T06:57:20.021Z,996.44
2019-02-09T06:58:19.322Z,996.45
2019-02-09T06:59:19.345Z,996.52
2019-02-09T07:00:19.305Z,996.56
2019-02-09T07:01:19.297Z,996.57
2019-02-09T07:02:19.287Z,996.50
2019-02-09T07:03:19.266Z,996.49
2019-02-09T07:04:19.261Z,996.44
2019-02-09T07:05:19.265Z,996.53
2019-02-09T07:06:19.230Z,996.45
2019-02-09T07:07:19.221Z,996.45
2019-02-09T07:08:19.213Z,996.44
2019-02-09T07:09:19.197Z,996.44
2019-02-09T07:10:19.214Z,996.50
2019-02-09T07:11:19.178Z,996.45
2019-02-09T07:12:19.171Z,996.44
2019-02-09T07:13:19.160Z,996.47
2019-02-09T07:14:19.147Z,996.48
2019-02-09T07:15:19.145Z,996.48
2019-02-09T07:16:19.111Z,996.48
2019-02-09T07:17:19.107Z,996.46
2019-02-09T07:18:19.091Z,996.50
2019-02-09T07:19:19.081Z,996.51
2019-02-09T07:20:19.087Z,996.48
2019-02-09T07:21:19.066Z,996.49
2019-02-09T07:22:19.047Z,996.51
2019-02-09T07:23:19.039Z,996.50
2019-02-09T07:24:19.035Z,996.57
2019-02-09T07:25:19.031Z,996.60
2019-02-09T07:26:18.998Z,996.69
2019-02-09T07:27:18.992Z,996.70
2019-02-09T07:28:18.976Z,996.68
2019-02-09T07:29:18.963Z,996.67
2019-02-09T07:30:18.974Z,996.68
2019-02-09T07:31:18.944Z,996.71
2019-02-09T07:32:18.936Z,996.73
2019-02-09T07:33:18.914Z,996.73
2019-02-09T07:34:18.914Z,996.65
2019-02-09T07:35:18.929Z,996.66
2019-02-09T07:36:18.915Z,996.69
2019-02-09T07:37:18.875Z,996.66
2019-02-09T07:38:18.870Z,996.69
2019-02-09T07:39:18.861Z,996.58
2019-02-09T07:40:18.862Z,996.69
2019-02-09T07:41:18.834Z,996.63
2019-02-09T07:42:18.822Z,996.72
2019-02-09T07:43:18.810Z,996.61
2019-02-09T07:44:18.796Z,996.57
2019-02-09T07:45:18.799Z,996.71
2019-02-09T07:46:18.796Z,996.70
2019-02-09T07:47:18.759Z,996.67
2019-02-09T07:48:18.750Z,996.69
2019-02-09T07:49:18.740Z,996.63
2019-02-09T07:50:18.730Z,996.61
2019-02-09T07:51:19.028Z,996.67
2019-02-09T07:52:18.706Z,996.67
2019-02-09T07:53:18.696Z,996.70
2019-02-09T07:54:18.681Z,996.70
2019-02-09T07:55:18.670Z,996.65
2019-02-09T07:56:18.688Z,996.67
2019-02-09T07:57:18.650Z,996.66
2019-02-09T07:58:18.636Z,996.65
2019-02-09T07:59:18.626Z,996.68
2019-02-09T08:00:18.614Z,996.71
2019-02-09T08:01:18.607Z,996.70
2019-02-09T08:02:18.602Z,996.68
2019-02-09T08:03:18.588Z,996.69
2019-02-09T08:04:18.571Z,996.75
2019-02-09T08:05:18.563Z,996.67
2019-02-09T08:06:18.561Z,996.67
2019-02-09T08:07:18.538Z,996.63
2019-02-09T08:08:18.521Z,996.64
2019-02-09T08:09:18.515Z,996.70
2019-02-09T08:10:18.507Z,996.78
2019-02-09T08:11:18.508Z,996.73
2019-02-09T08:12:18.476Z,996.76
2019-02-09T08:13:18.461Z,996.75
2019-02-09T08:14:18.462Z,996.72
2019-02-09T08:15:18.447Z,996.76
2019-02-09T08:16:18.451Z,996.80
2019-02-09T08:17:18.418Z,996.81
2019-02-09T08:18:18.410Z,996.81
2019-02-09T08:19:18.397Z,996.77
2019-02-09T08:20:18.390Z,996.77
2019-02-09T08:21:18.417Z,996.78
2019-02-09T08:22:18.360Z,996.75
2019-02-09T08:23:18.351Z,996.79
2019-02-09T08:24:18.342Z,996.77
2019-02-09T08:25:18.344Z,996.73
2019-02-09T08:26:18.320Z,996.77
2019-02-09T08:27:23.407Z,996.75
2019-02-09T08:28:19.298Z,996.74
2019-02-09T08:29:18.287Z,996.76
2019-02-09T08:30:19.284Z,996.77
2019-02-09T08:31:18.270Z,996.78
2019-02-09T08:32:18.302Z,996.76
2019-02-09T08:33:18.249Z,996.81
2019-02-09T08:34:18.222Z,996.74
2019-02-09T08:35:18.211Z,996.70
2019-02-09T08:36:18.199Z,996.71
2019-02-09T08:37:18.206Z,996.74
2019-02-09T08:38:18.178Z,996.69
2019-02-09T08:39:18.167Z,996.63
2019-02-09T08:40:18.155Z,996.68
2019-02-09T08:41:18.139Z,996.61
2019-02-09T08:42:18.148Z,996.67
2019-02-09T08:43:18.118Z,996.66
2019-02-09T08:44:18.109Z,996.65
2019-02-09T08:45:18.103Z,996.62
2019-02-09T08:46:18.093Z,996.63
2019-02-09T08:47:18.116Z,996.64
2019-02-09T08:48:18.060Z,996.67
2019-02-09T08:49:18.051Z,996.62
2019-02-09T08:50:18.041Z,996.67
2019-02-09T08:51:18.025Z,996.65
2019-02-09T08:52:18.015Z,996.68
2019-02-09T08:53:18.020Z,996.76
2019-02-09T08:54:17.996Z,996.75
2019-02-09T08:55:17.982Z,996.73
2019-02-09T08:56:17.971Z,996.79
2019-02-09T08:57:17.958Z,996.81
2019-02-09T08:58:17.967Z,996.82
2019-02-09T08:59:17.936Z,996.85
2019-02-09T09:00:17.934Z,996.86
2019-02-09T09:01:17.914Z,996.89
2019-02-09T09:02:20.587Z,996.87
2019-02-09T09:03:17.908Z,996.86
2019-02-09T09:04:17.899Z,996.85
2019-02-09T09:05:17.870Z,996.83
2019-02-09T09:06:17.860Z,996.87
2019-02-09T09:07:17.846Z,996.84
2019-02-09T09:08:17.852Z,996.93
2019-02-09T09:09:17.823Z,996.84
2019-02-09T09:10:17.823Z,996.83
2019-02-09T09:11:17.803Z,996.83
2019-02-09T09:12:17.820Z,996.82
2019-02-09T09:13:17.822Z,996.84
2019-02-09T09:14:17.774Z,996.76
2019-02-09T09:15:17.759Z,996.80
2019-02-09T09:16:17.828Z,996.68
2019-02-09T09:17:17.785Z,996.70
2019-02-09T09:18:17.968Z,996.74
2019-02-09T09:19:17.765Z,996.74
2019-02-09T09:20:17.765Z,996.72
2019-02-09T09:21:17.729Z,996.70
2019-02-09T09:22:17.676Z,996.73
2019-02-09T09:23:17.739Z,996.79
2019-02-09T09:24:17.680Z,996.80
2019-02-09T09:25:17.670Z,996.83
2019-02-09T09:26:17.650Z,996.75
2019-02-09T09:27:18.275Z,996.79
2019-02-09T09:28:17.646Z,996.74
2019-02-09T09:29:17.647Z,996.74
2019-02-09T09:30:17.652Z,996.79
2019-02-09T09:31:17.625Z,996.90
2019-02-09T09:32:17.594Z,996.82
2019-02-09T09:33:17.660Z,996.83
2019-02-09T09:34:17.606Z,996.82
2019-02-09T09:35:17.606Z,996.97
2019-02-09T09:36:17.551Z,996.88
2019-02-09T09:37:17.541Z,996.96
2019-02-09T09:38:17.581Z,996.98
2019-02-09T09:39:17.521Z,997.05
2019-02-09T09:40:17.486Z,996.97
2019-02-09T09:41:17.535Z,997.03
2019-02-09T09:42:17.483Z,997.02
2019-02-09T09:43:17.561Z,997.06
2019-02-09T09:44:17.534Z,997.01
2019-02-09T09:45:17.482Z,997.10
2019-02-09T09:46:17.434Z,997.09
2019-02-09T09:47:17.397Z,997.07
2019-02-09T09:48:17.416Z,997.07
2019-02-09T09:49:17.373Z,997.02
2019-02-09T09:50:17.360Z,996.99
2019-02-09T09:51:17.350Z,997.04
2019-02-09T09:52:17.336Z,997.01
2019-02-09T09:53:17.366Z,997.07
2019-02-09T09:54:17.324Z,997.13
2019-02-09T09:55:17.309Z,997.17
2019-02-09T09:56:17.303Z,997.10
2019-02-09T09:57:17.286Z,997.12
2019-02-09T09:58:17.277Z,997.08
2019-02-09T09:59:17.295Z,997.22
2019-02-09T10:00:17.285Z,997.20
2019-02-09T10:01:17.244Z,997.24
2019-02-09T10:02:17.223Z,997.23
2019-02-09T10:03:17.226Z,997.22
2019-02-09T10:04:17.226Z,997.19
2019-02-09T10:05:17.197Z,997.18
2019-02-09T10:06:17.184Z,997.22
2019-02-09T10:07:17.172Z,997.32
2019-02-09T10:08:17.164Z,997.22
2019-02-09T10:09:17.208Z,997.18
2019-02-09T10:10:17.137Z,997.21
2019-02-09T10:11:17.133Z,997.18
2019-02-09T10:12:17.121Z,997.23
2019-02-09T10:13:17.101Z,997.23
2019-02-09T10:14:17.121Z,997.22
2019-02-09T10:15:17.076Z,997.28
2019-02-09T10:16:17.078Z,997.27
2019-02-09T10:17:17.061Z,997.23
2019-02-09T10:18:17.045Z,997.15
2019-02-09T10:19:17.058Z,997.19
2019-02-09T10:20:17.025Z,997.25
2019-02-09T10:21:17.012Z,997.25
2019-02-09T10:22:16.998Z,997.22
2019-02-09T10:23:16.996Z,997.23
2019-02-09T10:24:17.021Z,997.30
2019-02-09T10:25:16.973Z,997.27
2019-02-09T10:26:16.957Z,997.24
2019-02-09T10:27:16.946Z,997.20
2019-02-09T10:28:16.929Z,997.25
2019-02-09T10:29:16.939Z,997.24
2019-02-09T10:30:16.910Z,997.35
2019-02-09T10:31:16.907Z,997.34
2019-02-09T10:32:16.895Z,997.25
2019-02-09T10:33:16.911Z,997.32
2019-02-09T10:34:16.889Z,997.29
2019-02-09T10:35:16.852Z,997.30
2019-02-09T10:36:16.845Z,997.18
2019-02-09T10:37:16.835Z,997.24
2019-02-09T10:38:16.832Z,997.30
2019-02-09T10:39:16.839Z,997.36
2019-02-09T10:40:16.825Z,997.39
2019-02-09T10:41:16.788Z,997.37
2019-02-09T10:42:16.773Z,997.30
2019-02-09T10:43:16.758Z,997.40
2019-02-09T10:44:16.749Z,997.35
2019-02-09T10:45:16.756Z,997.17
2019-02-09T10:46:16.730Z,997.32
2019-02-09T10:47:16.716Z,997.28
2019-02-09T10:48:16.702Z,997.27
2019-02-09T10:49:16.697Z,997.29
2019-02-09T10:50:16.700Z,997.30
2019-02-09T10:51:16.667Z,997.37
2019-02-09T10:52:16.657Z,997.28
2019-02-09T10:53:16.650Z,997.38
2019-02-09T10:54:16.637Z,997.24
2019-02-09T10:55:16.644Z,997.20
2019-02-09T10:56:16.613Z,997.34
2019-02-09T10:57:16.601Z,997.32
2019-02-09T10:58:16.592Z,997.19
2019-02-09T10:59:16.578Z,997.27
2019-02-09T11:00:16.583Z,997.23
2019-02-09T11:01:16.562Z,997.33
2019-02-09T11:02:16.540Z,997.20
2019-02-09T11:03:16.531Z,997.23
2019-02-09T11:04:16.518Z,997.30
2019-02-09T11:05:16.531Z,997.34
2019-02-09T11:06:16.517Z,997.18
2019-02-09T11:07:16.490Z,997.20
2019-02-09T11:08:16.473Z,997.31
2019-02-09T11:09:16.465Z,997.19
2019-02-09T11:10:16.464Z,997.23
2019-02-09T11:11:16.654Z,997.29
2019-02-09T11:12:16.426Z,997.29
2019-02-09T11:13:16.417Z,997.22
2019-02-09T11:14:16.404Z,997.35
2019-02-09T11:15:16.436Z,997.22
2019-02-09T11:16:16.386Z,997.31
2019-02-09T11:17:16.372Z,997.24
2019-02-09T11:18:16.358Z,997.22
2019-02-09T11:19:16.431Z,997.18
2019-02-09T11:20:16.368Z,997.13
2019-02-09T11:21:16.334Z,997.03
2019-02-09T11:22:16.580Z,997.10
2019-02-09T11:23:16.305Z,997.25
2019-02-09T11:24:16.290Z,997.25
2019-02-09T11:25:16.495Z,997.34
2019-02-09T11:26:16.404Z,997.26
2019-02-09T11:27:16.269Z,997.09
2019-02-09T11:28:16.362Z,997.34
2019-02-09T11:29:16.238Z,997.24
2019-02-09T11:30:16.266Z,997.31
2019-02-09T11:31:16.228Z,997.32
2019-02-09T11:32:16.205Z,997.46
2019-02-09T11:33:16.185Z,997.45
2019-02-09T11:34:16.174Z,997.46
2019-02-09T11:35:16.203Z,997.44
2019-02-09T11:36:16.158Z,997.40
2019-02-09T11:37:16.153Z,997.39
2019-02-09T11:38:16.139Z,997.43
2019-02-09T11:39:16.128Z,997.45
2019-02-09T11:40:16.112Z,997.42
2019-02-09T11:41:16.123Z,997.40
2019-02-09T11:42:16.141Z,997.45
2019-02-09T11:43:16.088Z,997.41
2019-02-09T11:44:16.080Z,997.44
2019-02-09T11:45:16.054Z,997.37
2019-02-09T11:46:16.063Z,997.48
2019-02-09T11:47:16.035Z,997.44
2019-02-09T11:48:16.024Z,997.32
2019-02-09T11:49:16.283Z,997.39
2019-02-09T11:50:16.014Z,997.51
2019-02-09T11:51:16.009Z,997.19
2019-02-09T11:52:15.977Z,997.45
2019-02-09T11:53:15.973Z,997.46
2019-02-09T11:54:15.985Z,997.50
2019-02-09T11:55:16.069Z,997.41
2019-02-09T11:56:15.958Z,997.36
2019-02-09T11:57:15.926Z,997.35
2019-02-09T11:58:16.361Z,997.44
2019-02-09T11:59:15.900Z,997.33
2019-02-09T12:00:15.888Z,997.39
2019-02-09T12:01:17.122Z,997.44
2019-02-09T12:02:15.894Z,997.50
2019-02-09T12:03:16.432Z,997.37
2019-02-09T12:04:15.850Z,997.48
2019-02-09T12:05:15.831Z,997.36
2019-02-09T12:06:15.840Z,997.47
2019-02-09T12:07:15.810Z,997.42
2019-02-09T12:08:15.798Z,997.37
2019-02-09T12:09:15.788Z,997.39
2019-02-09T12:10:15.772Z,997.31
2019-02-09T12:11:15.804Z,997.30
2019-02-09T12:12:15.780Z,997.43
2019-02-09T12:13:15.747Z,997.33
2019-02-09T12:14:15.734Z,997.29
2019-02-09T12:15:15.724Z,997.32
2019-02-09T12:16:15.770Z,997.34
2019-02-09T12:17:15.877Z,997.38
2019-02-09T12:18:15.687Z,997.29
2019-02-09T12:19:15.771Z,997.34
2019-02-09T12:20:15.670Z,997.27
2019-02-09T12:21:15.652Z,997.35
2019-02-09T12:22:15.674Z,997.42
2019-02-09T12:23:15.635Z,997.33
2019-02-09T12:24:15.626Z,997.36
2019-02-09T12:25:15.624Z,997.33